Terminal Aerodrome Forecast
Issued by NWS

Home | Current Version | Previous Version | Text Only | Print | Product List | Glossary On
Versions: 1 2 3 4 5 6 7 8 9 10 11 12 13 14 15 16 17 18 19 20 21 22 23 24 25 26 27 28 29 30 31 32 33 34 35 36 37 38 39 40 41 42 43 44 45 46 47 48
000
FTUS41 KBOX 240128 AAA
TAFMHT
TAF AMD
KMHT 240128Z 2401/2424 32006KT 6SM -RA BR VCTS OVC040CB
     FM240300 VRB03KT 6SM -RA BR OVC040
     FM240900 35005KT 4SM BR OVC030
     FM241500 35007KT P6SM BKN040
     FM242300 VRB03KT P6SM BKN040=

USA.gov is the U.S. government's official web portal to all federal, state and local government web resources and services.